Terminal Aerodrome Forecast
Issued by NWS Sterling, VA

Current Version | Previous Version | Graphics & Text | Print | Product List | Glossary On
Versions: 1 2 3 4 5 6 7 8 9 10 11 12 13 14 15 16 17 18 19 20
000
FTUS41 KLWX 281737
TAFMRB
TAF
KMRB 281737Z 2818/2918 VRB04KT P6SM SCT030
     FM282200 00000KT P6SM SKC
     FM290000 VRB03KT 3SM BR SKC
     FM290900 VRB03KT 1SM BR BKN015
     FM291200 09004KT 4SM BR SCT015
     FM291300 VRB04KT P6SM SCT030
     FM291700 15010KT P6SM SCT040=

USA.gov is the U.S. government's official web portal to all federal, state and local government web resources and services.